Eastman, Canada
Current Conditions -  °F | °C
As of 10:35 PM on Friday 19 Dec 2014 (Local Time) from KEFK Reporting Station
Clear Clear  
Wind Chill: -11°   Ceiling: Unl
Heat Index: -11°   Visibility: 10mi
Dew Point: -12°   Wind: 0mph
Humidity: 92%   Direction: NA
Pressure: 30.18"   Gusts: NA
Location:  45.3°N, 72.32°W
Report Text: KEFK 200335Z AUTO 00000KT 10SM CLR M11/M12 A3018 RMK AO2 T11111121
Loading
Personal Weather Stations






























Interactive Weather Map New forecast layout! Learn more

10-Day Weather Forecast

Advertisements
Track Severe Weather on mobile